Schrunz, Liechtenstein
Current Conditions -  °F | °C
As of 9:50 PM on Saturday 25 Oct 2014 (Local Time) from LSZR Reporting Station
Overcast Overcast  
Wind Chill: 11°   Ceiling: 4100
Heat Index: 11°   Visibility: 6mi
Dew Point:   Wind: 5mph
Humidity: 82%   Direction: 120°ESE
Pressure: 30.21"   Gusts: NA
Location:  47.08°N, 9.93°E
Report Text: LSZR 251950Z AUTO 12004KT 9999 BKN041 OVC080 11/08 Q1023
Loading
Personal Weather Stations






























Interactive Weather Map
Tropical Storm Tracking
New forecast layout! Learn more

10-Day Weather Forecast

Advertisements
Track Severe Weather on mobile